Time;durP1;ratioP1;P1;durP2;ratioP2;P2;SDS_P1;SDS_P2;PMS_P1;PMS_P2;Temp;Humidity;BMP_temperature;BMP_pressure;BME280_temperature;BME280_humidity;BME280_pressure;Samples;Min_cycle;Max_cycle;Signal;HPM_P1;HPM_P2
2021/06/03 00:01:50;;;;;;;11.27;5.97;;;14.50;99.90;;;13.35;81.91;102061.78;5010587;28;20120;-76
2021/06/03 00:04:16;;;;;;;13.00;5.90;;;14.40;99.90;;;13.22;82.42;102057.81;4975490;28;20128;-76
2021/06/03 00:06:42;;;;;;;12.90;6.22;;;14.40;99.90;;;13.23;82.24;102062.19;5011020;28;20101;-75
2021/06/03 00:09:09;;;;;;;9.88;6.43;;;14.40;99.90;;;13.24;82.57;102063.88;5009757;28;20460;-76
2021/06/03 00:11:36;;;;;;;12.82;6.15;;;14.40;99.90;;;13.18;82.36;102065.00;5020633;28;20071;-75
2021/06/03 00:14:04;;;;;;;11.50;5.80;;;14.40;99.90;;;13.21;81.90;102064.88;5028502;28;20078;-76
2021/06/03 00:16:34;;;;;;;11.48;6.40;;;14.40;99.90;;;13.17;82.13;102078.28;5017324;28;20064;-76
2021/06/03 00:19:06;;;;;;;9.82;5.63;;;14.30;99.90;;;13.13;82.39;102072.22;5002209;28;20060;-76
2021/06/03 00:21:34;;;;;;;12.15;6.30;;;14.30;99.90;;;13.10;82.18;102072.34;5005813;28;20074;-76
2021/06/03 00:24:01;;;;;;;13.32;6.45;;;14.20;99.90;;;13.03;82.74;102074.34;5002860;28;20065;-76
2021/06/03 00:26:27;;;;;;;13.60;6.55;;;14.20;99.90;;;13.04;81.97;102067.25;5010143;28;20712;-76
2021/06/03 00:28:53;;;;;;;10.20;6.10;;;14.30;99.90;;;13.07;82.74;102061.88;4985682;28;20080;-75
2021/06/03 00:31:20;;;;;;;10.95;6.30;;;14.20;99.90;;;13.12;82.70;102059.94;4994512;28;20140;-76
2021/06/03 00:33:46;;;;;;;11.23;6.38;;;14.20;99.90;;;13.11;82.66;102068.78;4995954;28;20071;-76
2021/06/03 00:36:13;;;;;;;10.05;6.22;;;14.30;99.90;;;13.11;83.05;102068.78;5011917;28;20078;-76
2021/06/03 00:38:40;;;;;;;11.07;6.32;;;14.30;99.90;;;13.08;82.83;102068.88;5009958;28;20069;-76
2021/06/03 00:41:08;;;;;;;12.00;6.28;;;14.20;99.90;;;13.08;83.21;102069.75;4984374;28;20082;-77
2021/06/03 00:43:35;;;;;;;15.35;6.68;;;14.20;99.90;;;13.08;83.21;102076.81;4995586;28;20074;-75
2021/06/03 00:46:02;;;;;;;11.15;6.15;;;14.20;99.90;;;13.03;83.07;102076.13;5002453;28;20651;-76
2021/06/03 00:48:30;;;;;;;11.98;6.63;;;14.20;99.90;;;13.08;83.57;102074.16;4989484;28;20146;-76
2021/06/03 00:51:00;;;;;;;10.93;7.18;;;14.20;99.90;;;13.02;83.33;102074.38;4986979;28;20121;-75
2021/06/03 00:53:27;;;;;;;12.00;6.30;;;14.20;99.90;;;13.03;83.21;102076.97;4997489;28;20158;-76
2021/06/03 00:55:57;;;;;;;17.17;6.18;;;14.20;99.90;;;12.99;83.44;102074.50;5005502;28;20413;-76
2021/06/03 00:58:24;;;;;;;10.82;6.13;;;14.10;99.90;;;13.04;83.01;102083.13;5022387;28;20067;-76
2021/06/03 01:00:53;;;;;;;10.80;6.28;;;14.20;99.90;;;12.99;83.61;102085.09;5004336;28;20070;-75
2021/06/03 01:03:21;;;;;;;13.20;6.25;;;14.20;99.90;;;13.00;83.75;102081.50;5013924;28;20070;-76
2021/06/03 01:06:09;;;;;;;10.82;5.97;;;14.10;99.90;;;12.97;83.50;102092.19;5017218;28;20084;-76
2021/06/03 01:09:03;;;;;;;13.68;6.82;;;14.10;99.90;;;12.91;83.72;102087.97;5012459;28;20519;-76
2021/06/03 01:12:10;;;;;;;13.82;6.22;;;14.00;99.90;;;12.87;84.35;102097.81;5005923;28;20521;-76
2021/06/03 01:14:51;;;;;;;9.10;6.43;;;14.00;99.90;;;12.88;83.80;102096.88;4988455;28;20181;-76
2021/06/03 01:17:21;;;;;;;10.65;6.38;;;14.00;99.90;;;12.79;83.76;102096.34;4998337;28;20411;-76
2021/06/03 01:19:48;;;;;;;16.27;6.20;;;13.90;99.90;;;12.79;83.29;102088.41;5012409;28;20058;-76
2021/06/03 01:22:59;;;;;;;20.70;6.97;;;13.90;99.90;;;12.73;83.11;102090.34;4979617;28;20070;-76
2021/06/03 01:25:26;;;;;;;11.27;6.15;;;13.90;99.90;;;12.70;83.20;102089.59;5023442;28;20489;-76
2021/06/03 01:27:56;;;;;;;11.75;6.22;;;13.90;99.90;;;12.75;83.46;102098.22;4995239;28;20060;-76
2021/06/03 01:30:38;;;;;;;11.38;6.53;;;13.90;99.90;;;12.73;82.79;102087.69;4996865;28;20069;-76
2021/06/03 01:33:15;;;;;;;13.88;7.05;;;13.90;99.90;;;12.71;82.13;102088.66;4992285;28;20059;-75
2021/06/03 01:35:49;;;;;;;11.35;6.20;;;13.70;99.90;;;12.69;82.37;102091.34;4989108;28;20123;-76
2021/06/03 01:38:23;;;;;;;14.20;7.43;;;13.90;99.90;;;12.68;82.15;102096.72;4991912;28;20619;-76
2021/06/03 01:40:51;;;;;;;12.13;6.30;;;13.80;99.90;;;12.69;82.03;102090.50;5005672;28;20092;-76
2021/06/03 01:43:20;;;;;;;11.98;6.32;;;13.90;99.90;;;12.63;81.62;102088.91;4980120;28;20063;-76
2021/06/03 01:45:48;;;;;;;15.40;6.25;;;13.80;99.90;;;12.58;81.32;102090.00;4980656;28;20211;-76
2021/06/03 01:48:18;;;;;;;12.05;6.47;;;13.80;99.90;;;12.58;80.86;102090.84;5012668;28;20064;-75
2021/06/03 01:50:46;;;;;;;12.43;6.10;;;13.80;99.90;;;12.57;80.40;102077.69;5013913;28;20067;-77
2021/06/03 01:53:14;;;;;;;14.18;5.93;;;13.70;99.90;;;12.61;80.18;102085.50;4986536;28;20097;-77
2021/06/03 01:55:41;;;;;;;11.02;6.13;;;13.70;99.90;;;12.49;80.77;102081.47;4993802;28;20087;-76
2021/06/03 01:58:08;;;;;;;10.60;6.57;;;13.70;99.90;;;12.49;80.14;102088.53;5013826;28;20063;-75
2021/06/03 02:00:34;;;;;;;9.85;6.32;;;13.70;99.90;;;12.54;79.13;102083.09;4997340;28;20137;-76
2021/06/03 02:03:00;;;;;;;11.15;5.85;;;13.70;99.90;;;12.45;79.49;102085.13;5012008;28;20064;-76
2021/06/03 02:05:30;;;;;;;11.77;5.60;;;13.60;99.90;;;12.34;80.07;102075.81;5013217;28;22028;-76
2021/06/03 02:07:56;;;;;;;10.32;6.05;;;13.50;99.90;;;12.28;80.26;102067.16;5008900;28;20066;-76
2021/06/03 02:10:23;;;;;;;10.25;6.18;;;13.40;99.90;;;12.22;80.11;102074.44;5025154;28;20516;-76
2021/06/03 02:13:18;;;;;;;13.43;5.95;;;13.40;99.90;;;12.18;80.16;102081.59;5001916;28;20125;-75
2021/06/03 02:15:55;;;;;;;12.43;6.32;;;13.30;99.90;;;12.08;80.40;102077.53;5006283;28;20095;-76
2021/06/03 02:18:36;;;;;;;11.63;6.20;;;13.30;99.90;;;12.12;79.65;102079.16;5001540;28;20126;-76
2021/06/03 02:21:04;;;;;;;11.15;5.65;;;13.30;99.90;;;12.05;79.79;102081.13;5015569;28;20282;-76
2021/06/03 02:23:31;;;;;;;9.93;5.43;;;13.30;99.90;;;12.04;79.69;102074.09;4996594;28;20554;-76
2021/06/03 02:26:00;;;;;;;9.18;5.45;;;13.20;99.90;;;12.00;79.32;102072.47;4996704;28;20078;-76
2021/06/03 02:28:29;;;;;;;11.30;5.55;;;13.20;99.90;;;12.02;79.13;102078.56;5007875;28;20059;-76
2021/06/03 02:30:58;;;;;;;9.00;5.50;;;13.20;99.90;;;11.95;79.30;102074.41;4984506;28;20056;-75
2021/06/03 02:33:28;;;;;;;12.10;5.95;;;13.20;99.90;;;11.89;79.01;102079.84;5015361;28;20436;-76
2021/06/03 02:35:54;;;;;;;8.30;5.68;;;13.10;99.90;;;11.95;79.23;102079.66;5009714;28;20059;-76
2021/06/03 02:38:25;;;;;;;7.63;4.85;;;13.20;99.90;;;12.00;78.60;102083.03;4982897;28;20076;-76
2021/06/03 02:40:53;;;;;;;8.82;5.57;;;13.10;99.90;;;11.88;79.13;102093.97;4996597;28;20067;-77
2021/06/03 02:43:22;;;;;;;10.20;4.78;;;13.00;99.90;;;11.80;79.77;102088.03;5001964;28;20071;-76
2021/06/03 02:45:48;;;;;;;9.55;5.35;;;13.00;99.90;;;11.89;78.76;102090.41;4995140;28;20083;-76
2021/06/03 02:48:15;;;;;;;9.70;5.63;;;13.00;99.90;;;11.77;79.30;102090.75;4988588;28;20087;-76
2021/06/03 02:50:42;;;;;;;12.48;5.53;;;12.90;99.90;;;11.73;79.75;102099.66;5001841;28;20064;-75
2021/06/03 02:53:08;;;;;;;13.48;4.53;;;13.00;99.90;;;11.68;79.66;102100.69;4997141;28;20078;-75
2021/06/03 02:55:35;;;;;;;7.65;5.15;;;12.90;99.90;;;11.72;79.13;102104.06;5012521;28;20070;-77
2021/06/03 02:58:01;;;;;;;8.85;4.88;;;13.00;99.90;;;11.75;78.63;102108.38;5007647;28;20116;-76
2021/06/03 03:00:32;;;;;;;10.23;4.72;;;12.90;99.90;;;11.72;79.14;102103.22;4975764;28;20070;-76
2021/06/03 03:03:00;;;;;;;12.25;4.78;;;13.00;99.90;;;11.79;78.49;102110.03;5002889;28;20070;-77
2021/06/03 03:05:26;;;;;;;14.40;5.38;;;13.00;99.90;;;11.72;78.61;102108.50;4986279;28;20087;-76
2021/06/03 03:07:53;;;;;;;10.80;5.75;;;12.90;99.90;;;11.64;78.71;102109.59;4972804;28;20145;-76
2021/06/03 03:10:27;;;;;;;10.35;5.25;;;12.90;99.90;;;11.62;78.72;102111.41;5009841;28;20066;-76
2021/06/03 03:12:54;;;;;;;7.25;4.72;;;12.80;99.90;;;11.56;79.29;102114.22;4995433;28;20071;-75
2021/06/03 03:15:20;;;;;;;11.23;5.10;;;12.80;99.90;;;11.64;78.82;102111.34;4994172;28;20078;-76
2021/06/03 03:17:46;;;;;;;9.93;4.97;;;12.80;99.90;;;11.65;79.13;102116.59;5012552;28;20110;-76
2021/06/03 03:20:16;;;;;;;7.60;4.75;;;12.90;99.90;;;11.63;78.92;102115.75;4995703;28;20393;-76
2021/06/03 03:22:43;;;;;;;11.98;4.85;;;12.90;99.90;;;11.78;77.98;102113.59;4973329;28;20471;-77
2021/06/03 03:25:12;;;;;;;7.55;4.60;;;13.00;99.90;;;11.84;77.42;102116.06;4996313;28;20082;-76
2021/06/03 03:27:43;;;;;;;10.38;5.00;;;13.20;99.90;;;11.85;77.49;102115.13;4991850;28;20541;-76
2021/06/03 03:30:11;;;;;;;7.47;4.60;;;13.10;99.90;;;11.83;77.14;102111.66;5001354;28;20169;-75
2021/06/03 03:32:37;;;;;;;9.63;5.43;;;13.10;99.90;;;11.90;77.01;102113.28;4995264;28;20157;-75
2021/06/03 03:35:07;;;;;;;7.85;4.43;;;13.10;99.90;;;11.96;76.73;102109.56;5010119;28;21185;-76
2021/06/03 03:37:33;;;;;;;8.45;5.13;;;13.20;99.90;;;11.93;77.85;102099.13;5011860;28;20430;-76
2021/06/03 03:39:59;;;;;;;8.40;4.85;;;13.30;99.90;;;12.21;76.28;102107.03;5004274;28;20068;-76
2021/06/03 03:42:26;;;;;;;10.45;5.40;;;13.80;99.90;;;12.66;74.29;102103.84;4979518;28;20070;-76
2021/06/03 03:44:52;;;;;;;11.55;5.28;;;14.40;99.90;;;13.22;72.22;102108.09;4957938;28;20068;-76
2021/06/03 03:47:19;;;;;;;8.70;4.53;;;15.00;99.90;;;13.51;70.39;102104.38;4966161;28;20150;-76
2021/06/03 03:49:45;;;;;;;9.27;4.78;;;15.30;99.90;;;14.12;68.13;102104.72;5003637;28;20153;-76
2021/06/03 03:52:11;;;;;;;7.60;4.90;;;15.70;99.90;;;14.67;66.38;102101.63;5001541;28;20075;-76
2021/06/03 03:54:38;;;;;;;8.95;4.32;;;16.30;99.90;;;15.03;63.97;102105.41;4989652;28;20066;-76
2021/06/03 03:57:06;;;;;;;12.43;4.57;;;16.50;99.90;;;15.12;64.50;102110.34;4996994;28;20080;-76
2021/06/03 03:59:31;;;;;;;9.00;4.60;;;16.60;99.90;;;15.49;62.87;102104.25;5006654;28;20417;-76
2021/06/03 04:01:57;;;;;;;7.43;4.15;;;17.00;99.90;;;15.52;62.39;102109.41;5001378;28;20067;-76
2021/06/03 04:04:24;;;;;;;6.60;4.05;;;16.90;99.90;;;15.30;62.85;102109.50;5010884;28;20091;-76
2021/06/03 04:06:51;;;;;;;7.10;3.90;;;17.10;99.90;;;15.34;63.29;102105.78;4994317;28;20210;-76
2021/06/03 04:09:18;;;;;;;5.72;4.00;;;16.90;99.90;;;15.26;63.65;102113.22;5010687;28;20155;-77
2021/06/03 04:11:44;;;;;;;7.60;4.13;;;17.30;99.90;;;16.06;61.52;102108.75;5002318;28;20081;-76
2021/06/03 04:14:10;;;;;;;6.00;4.40;;;17.60;99.90;;;15.86;61.13;102109.69;4994637;28;20079;-76
2021/06/03 04:16:36;;;;;;;6.38;4.22;;;17.30;99.90;;;15.83;62.02;102121.31;5009982;28;20059;-76
2021/06/03 04:19:03;;;;;;;7.78;3.63;;;17.80;99.90;;;16.45;60.23;102118.38;5004852;28;20064;-76
2021/06/03 04:21:29;;;;;;;8.30;4.43;;;18.00;99.90;;;16.64;59.10;102110.34;5003544;28;20036;-76
2021/06/03 04:23:55;;;;;;;7.95;3.78;;;18.50;99.90;;;17.65;55.89;102126.41;4993709;28;20041;-76
2021/06/03 04:26:21;;;;;;;11.75;3.97;;;18.90;99.90;;;17.57;54.95;102125.94;4980460;28;20064;-76
2021/06/03 04:28:47;;;;;;;6.07;4.13;;;19.40;99.90;;;18.41;52.32;102125.75;4985395;28;20056;-76
2021/06/03 04:31:13;;;;;;;5.43;3.85;;;19.50;99.90;;;18.10;53.76;102124.84;4965138;28;20394;-76
2021/06/03 04:33:39;;;;;;;7.22;3.78;;;19.50;99.90;;;18.16;53.41;102126.28;5006672;28;20033;-76
2021/06/03 04:36:07;;;;;;;8.85;4.28;;;19.60;99.90;;;18.58;52.26;102133.63;4981352;28;20020;-77
2021/06/03 04:38:34;;;;;;;9.35;4.20;;;19.60;99.90;;;18.58;52.47;102136.31;4996676;28;20041;-76
2021/06/03 04:40:59;;;;;;;6.82;3.95;;;20.20;99.90;;;19.24;49.62;102135.09;4969254;28;20492;-76
2021/06/03 04:43:27;;;;;;;6.68;4.07;;;20.20;99.90;;;18.44;51.57;102134.44;5003240;28;20026;-76
2021/06/03 04:45:53;;;;;;;6.55;3.47;;;20.40;99.90;;;19.42;49.29;102142.94;4983527;28;20128;-76
2021/06/03 04:48:19;;;;;;;8.27;4.00;;;20.70;99.90;;;19.35;48.93;102131.78;5004851;28;20150;-76
2021/06/03 04:50:46;;;;;;;6.70;3.80;;;21.00;99.90;;;20.11;47.51;102130.59;5011774;28;20037;-76
2021/06/03 04:53:13;;;;;;;5.70;3.40;;;21.00;99.90;;;19.72;48.68;102132.19;5013948;28;20108;-76
2021/06/03 04:55:39;;;;;;;8.27;3.50;;;20.50;99.90;;;18.69;50.70;102142.84;5002478;28;20507;-77
2021/06/03 04:58:06;;;;;;;5.90;3.25;;;20.70;99.90;;;19.67;48.02;102140.47;4988681;28;20037;-76
2021/06/03 05:00:37;;;;;;;7.75;3.78;;;20.40;99.90;;;19.76;47.85;102147.06;4995139;28;24398;-76
2021/06/03 05:03:05;;;;;;;5.85;3.63;;;20.00;99.90;;;18.47;50.32;102148.56;5016437;28;20084;-76
2021/06/03 05:05:32;;;;;;;5.70;3.30;;;;;;;18.43;51.00;102146.03;4964618;28;20076;-76
2021/06/03 05:07:58;;;;;;;5.18;3.22;;;19.90;99.90;;;19.04;49.68;102151.44;4986405;28;20371;-76
2021/06/03 05:10:29;;;;;;;6.53;3.22;;;19.90;99.90;;;18.82;50.13;102149.19;4996368;28;21669;-76
2021/06/03 05:12:56;;;;;;;7.60;3.58;;;20.30;99.90;;;19.46;48.55;102150.66;5003806;28;20029;-76
2021/06/03 05:15:25;;;;;;;5.00;3.33;;;20.90;99.90;;;19.95;46.43;102148.56;4992273;28;20044;-76
2021/06/03 05:17:54;;;;;;;5.55;3.47;;;20.70;99.90;;;19.71;46.29;102153.66;5007117;28;20365;-76
2021/06/03 05:20:23;;;;;;;4.45;3.17;;;20.60;99.90;;;19.73;46.92;102157.94;5004607;28;20116;-76
2021/06/03 05:22:54;;;;;;;7.40;3.03;;;20.90;99.90;;;19.54;46.74;102160.00;4985830;28;20021;-76
2021/06/03 05:25:24;;;;;;;4.43;2.85;;;20.90;99.90;;;19.42;46.42;102157.13;4987782;28;20382;-76
2021/06/03 05:27:50;;;;;;;5.82;3.25;;;20.70;99.90;;;19.59;47.68;102155.22;5012787;28;20086;-76
2021/06/03 05:30:19;;;;;;;4.13;2.80;;;20.50;99.90;;;18.77;48.91;102162.78;5005830;28;20017;-76
2021/06/03 05:32:45;;;;;;;11.73;3.08;;;20.30;99.90;;;19.09;49.04;102156.50;4994253;28;20477;-76
2021/06/03 05:35:21;;;;;;;10.00;2.53;;;20.50;99.90;;;19.81;46.92;102166.34;4990864;28;20026;-76
2021/06/03 05:37:48;;;;;;;12.13;2.90;;;20.70;99.90;;;20.22;46.25;102162.84;4977829;28;20072;-76
2021/06/03 05:40:18;;;;;;;3.83;2.95;;;20.70;99.90;;;19.84;47.08;102155.44;4980651;28;20109;-76
2021/06/03 05:42:48;;;;;;;7.80;3.20;;;21.10;99.90;;;20.71;45.34;102152.56;5001885;28;20388;-76
2021/06/03 05:45:16;;;;;;;14.52;3.38;;;21.60;99.10;;;21.02;43.50;102162.06;5002437;28;20013;-76
2021/06/03 05:47:43;;;;;;;6.53;3.25;;;21.70;98.80;;;21.09;44.28;102152.66;5002591;28;20075;-76
2021/06/03 05:50:13;;;;;;;4.80;2.85;;;21.80;98.90;;;20.89;45.23;102162.91;4992348;28;21040;-76
2021/06/03 05:52:41;;;;;;;4.93;2.92;;;22.30;97.80;;;21.70;42.40;102163.59;5002666;28;20036;-76
2021/06/03 05:55:10;;;;;;;9.10;3.25;;;22.50;97.90;;;21.62;43.06;102166.84;4978289;28;20029;-77
2021/06/03 05:57:37;;;;;;;5.68;3.00;;;22.70;97.40;;;22.35;41.02;102154.44;4987933;28;20083;-76
2021/06/03 06:00:14;;;;;;;3.95;3.13;;;22.70;96.40;;;21.87;41.57;102176.66;4993176;28;22947;-76
2021/06/03 06:03:01;;;;;;;7.07;3.28;;;22.80;96.80;;;21.59;42.48;102176.91;4989235;28;20468;-76
2021/06/03 06:08:15;;;;;;;4.50;2.75;;;22.60;96.80;;;21.09;44.04;102174.91;4999070;28;20046;-76
2021/06/03 06:10:43;;;;;;;5.47;2.90;;;22.30;97.10;;;20.93;45.19;102184.09;5004137;28;20489;-76
2021/06/03 06:13:10;;;;;;;3.80;2.88;;;21.80;98.00;;;20.95;44.94;102188.41;4996016;28;20037;-77
2021/06/03 06:15:39;;;;;;;4.32;2.72;;;22.10;97.70;;;21.51;43.16;102188.16;4990025;28;20025;-76
2021/06/03 06:18:06;;;;;;;5.28;2.92;;;22.30;97.30;;;22.36;41.38;102185.69;5008548;28;20048;-76
2021/06/03 06:20:34;;;;;;;4.93;2.80;;;23.10;96.20;;;22.93;39.97;102186.81;4962425;28;20112;-76
2021/06/03 06:23:00;;;;;;;6.05;2.67;;;23.10;95.70;;;22.54;40.53;102188.84;5008563;28;20022;-76
2021/06/03 06:25:27;;;;;;;9.55;3.00;;;23.30;96.20;;;22.49;42.30;102196.38;4972507;28;20028;-76
2021/06/03 06:27:53;;;;;;;5.07;2.92;;;23.60;95.50;;;23.24;40.00;102189.84;4987004;28;20045;-76
2021/06/03 06:30:20;;;;;;;8.20;2.90;;;23.60;93.80;;;22.13;41.27;102206.13;4983966;28;20437;-77
2021/06/03 06:32:46;;;;;;;4.55;3.13;;;22.80;94.50;;;22.10;40.44;102206.34;5012074;28;20022;-76
2021/06/03 06:35:12;;;;;;;5.72;2.50;;;22.80;95.30;;;22.46;40.54;102205.53;5012565;28;20032;-77
2021/06/03 06:37:39;;;;;;;7.10;2.60;;;23.20;95.90;;;22.63;41.12;102193.50;5011505;28;20026;-76
2021/06/03 06:40:10;;;;;;;4.93;2.75;;;24.00;96.00;;;24.13;39.59;102202.53;4996708;28;20021;-76
2021/06/03 06:42:37;;;;;;;4.25;2.83;;;24.40;93.50;;;23.52;38.58;102202.00;4977176;28;20374;-76
2021/06/03 06:45:06;;;;;;;6.50;2.70;;;23.70;94.10;;;23.06;39.63;102197.50;4993047;28;20104;-76
2021/06/03 06:47:33;;;;;;;9.82;2.70;;;23.10;95.40;;;22.49;42.06;102201.75;4998371;28;20408;-76
2021/06/03 06:49:58;;;;;;;7.95;2.63;;;23.10;95.10;;;22.35;42.36;102200.06;5029990;28;20029;-76
2021/06/03 06:52:24;;;;;;;5.68;2.47;;;23.80;93.60;;;23.40;39.44;102200.28;4995952;28;20078;-76
2021/06/03 06:54:50;;;;;;;5.28;2.97;;;23.70;93.50;;;22.92;39.48;102195.84;4960461;28;20426;-76
2021/06/03 06:57:18;;;;;;;3.75;2.38;;;23.70;95.00;;;23.35;40.40;102197.97;4990048;28;20033;-77
2021/06/03 06:59:44;;;;;;;9.52;2.63;;;24.60;93.30;;;24.31;38.24;102202.00;5004134;28;20059;-77
2021/06/03 07:02:10;;;;;;;3.97;2.25;;;24.10;94.10;;;23.83;39.20;102197.78;5001724;28;20094;-77
2021/06/03 07:04:36;;;;;;;7.28;2.75;;;23.70;94.30;;;23.01;41.58;102197.88;5010431;28;20025;-76
2021/06/03 07:07:03;;;;;;;4.72;2.60;;;23.60;94.80;;;22.39;41.48;102203.41;5018723;28;20124;-77
2021/06/03 07:09:29;;;;;;;4.00;2.28;;;24.10;95.00;;;23.84;40.46;102202.16;5030053;28;20029;-77
2021/06/03 07:11:55;;;;;;;6.57;2.50;;;23.70;92.50;;;23.46;38.08;102206.03;4987248;28;20085;-76
2021/06/03 07:14:21;;;;;;;10.13;2.53;;;23.70;93.60;;;23.43;38.79;102200.03;4985298;28;20552;-76
2021/06/03 07:16:46;;;;;;;4.32;2.22;;;24.10;93.50;;;23.99;38.40;102202.78;4988751;28;20029;-76
2021/06/03 07:19:12;;;;;;;3.13;2.45;;;24.10;92.70;;;23.57;39.88;102207.88;4987259;28;20056;-77
2021/06/03 07:21:38;;;;;;;6.22;2.70;;;24.10;91.80;;;23.79;36.91;102207.06;5012642;28;20545;-76
2021/06/03 07:24:06;;;;;;;5.47;2.33;;;24.40;91.50;;;24.21;36.17;102207.31;5004595;28;20025;-76
2021/06/03 07:26:32;;;;;;;5.25;2.40;;;24.50;91.00;;;24.12;35.72;102213.41;4996709;28;20049;-76
2021/06/03 07:29:01;;;;;;;2.47;2.10;;;24.40;92.20;;;23.98;37.56;102211.84;5007615;28;20030;-76
2021/06/03 07:31:27;;;;;;;3.60;2.08;;;24.20;91.50;;;23.84;35.91;102210.25;4997876;28;20035;-76
2021/06/03 07:33:52;;;;;;;4.43;2.50;;;24.30;92.10;;;24.44;37.25;102212.63;4978792;28;20034;-76
2021/06/03 07:36:18;;;;;;;5.78;2.20;;;24.40;90.20;;;24.32;35.97;102215.34;4996694;28;20043;-76
2021/06/03 07:38:44;;;;;;;6.95;2.30;;;23.40;92.30;;;22.86;39.29;102215.97;5000077;28;20041;-76
2021/06/03 07:41:11;;;;;;;4.97;2.38;;;23.50;92.00;;;23.08;38.17;102220.59;5013463;28;20025;-75
2021/06/03 07:43:37;;;;;;;5.28;2.63;;;23.40;92.70;;;23.21;39.41;102214.28;5011887;28;20022;-76
2021/06/03 07:46:03;;;;;;;9.15;2.40;;;23.50;92.00;;;23.52;38.52;102218.13;5002639;28;20178;-76
2021/06/03 07:48:29;;;;;;;5.68;2.30;;;24.30;92.30;;;24.18;37.04;102221.00;5011330;28;20056;-77
2021/06/03 07:50:55;;;;;;;6.47;2.33;;;23.90;92.70;;;23.88;37.47;102218.94;5008331;28;20033;-76
2021/06/03 07:53:21;;;;;;;5.25;2.30;;;24.60;91.90;;;24.53;36.75;102220.81;4973877;28;20037;-77
2021/06/03 07:55:47;;;;;;;4.97;2.33;;;24.20;91.60;;;23.99;37.74;102212.69;4984867;28;20022;-76
2021/06/03 07:58:14;;;;;;;5.95;2.45;;;24.90;92.00;;;24.91;34.94;102210.56;4985409;28;20112;-76
2021/06/03 08:00:42;;;;;;;8.23;2.25;;;25.20;90.20;;;24.89;35.59;102215.22;5005578;28;20017;-76
2021/06/03 08:03:10;;;;;;;7.75;2.50;;;25.00;90.00;;;24.64;35.32;102224.47;5003132;28;20119;-76
2021/06/03 08:05:36;;;;;;;4.70;2.28;;;24.70;88.60;;;23.06;36.49;102217.16;5016911;28;20084;-76
2021/06/03 08:08:03;;;;;;;5.88;2.42;;;24.60;90.50;;;23.99;35.33;102210.84;4985267;28;20037;-76
2021/06/03 08:10:35;;;;;;;8.88;4.00;;;24.20;88.30;;;23.26;37.00;102210.28;5008432;28;20092;-76
2021/06/03 08:13:03;;;;;;;4.70;2.40;;;24.60;90.20;;;24.20;36.10;102220.88;5003773;28;20034;-77
2021/06/03 08:15:32;;;;;;;3.35;2.25;;;24.90;86.90;;;24.22;34.35;102202.78;5010266;28;20025;-76
2021/06/03 08:17:58;;;;;;;7.28;2.30;;;24.80;87.60;;;24.28;35.61;102216.59;5001514;28;20087;-75
2021/06/03 08:20:34;;;;;;;7.22;2.20;;;24.50;85.70;;;23.72;34.80;102221.97;5001028;28;20040;-76
2021/06/03 08:23:02;;;;;;;3.50;1.98;;;24.50;90.50;;;24.05;35.91;102222.97;4962211;28;20021;-75
2021/06/03 08:25:28;;;;;;;3.38;2.38;;;24.40;88.40;;;23.88;36.15;102218.94;5009388;28;20381;-76
2021/06/03 08:27:54;;;;;;;2.78;2.20;;;24.80;87.90;;;24.19;34.62;102208.38;5021453;28;20029;-75
2021/06/03 08:30:20;;;;;;;3.95;2.78;;;24.80;86.80;;;24.12;36.16;102216.94;5003927;28;20044;-76
2021/06/03 08:32:49;;;;;;;2.38;1.83;;;24.80;86.10;;;24.10;35.42;102210.00;5014138;28;20565;-76
2021/06/03 08:35:23;;;;;;;8.38;2.30;;;25.00;85.40;;;24.43;34.64;102213.59;5014526;28;20490;-75
2021/06/03 08:37:54;;;;;;;6.78;2.10;;;24.70;85.10;;;23.62;33.56;102203.00;5013019;28;20424;-75
2021/06/03 08:40:28;;;;;;;3.78;2.05;;;24.60;83.90;;;23.64;34.13;102211.81;5002375;28;20032;-75
2021/06/03 08:42:57;;;;;;;3.05;1.83;;;24.50;82.60;;;23.46;33.76;102211.41;5016155;28;20566;-76
2021/06/03 08:45:26;;;;;;;3.90;2.00;;;24.20;84.00;;;23.05;34.76;102210.09;5019971;28;20127;-76
2021/06/03 08:47:53;;;;;;;4.10;2.05;;;24.20;82.20;;;23.33;33.68;102199.91;5013018;28;20033;-75
2021/06/03 08:50:21;;;;;;;3.03;2.00;;;23.90;82.20;;;22.87;34.24;102212.31;4986998;28;20451;-76
2021/06/03 08:52:47;;;;;;;4.57;1.75;;;24.00;82.20;;;23.26;34.76;102202.22;4985136;28;20439;-75
2021/06/03 08:58:06;;;;;;;10.88;2.50;;;23.90;84.30;;;23.09;34.39;102203.50;5014608;28;24884;-75
2021/06/03 09:00:41;;;;;;;4.32;2.00;;;23.80;82.90;;;23.02;34.37;102213.00;4974523;28;20108;-75
2021/06/03 09:03:35;;;;;;;17.30;2.95;;;24.00;83.60;;;23.50;33.33;102196.75;4939999;28;20568;-76
2021/06/03 09:06:39;;;;;;;4.85;2.00;;;24.20;82.00;;;23.36;34.58;102204.19;4942706;28;20116;-76
2021/06/03 09:09:56;;;;;;;7.57;2.63;;;24.20;82.50;;;23.43;34.22;102202.72;4958420;28;20025;-75
2021/06/03 09:13:19;;;;;;;7.43;2.42;;;23.70;81.20;;;23.08;33.19;102209.00;4957067;28;20531;-76
2021/06/03 09:16:44;;;;;;;2.80;1.80;;;23.90;82.70;;;23.39;33.30;102196.75;4965284;28;20037;-75
2021/06/03 09:20:10;;;;;;;7.20;1.98;;;23.90;79.70;;;23.26;31.96;102209.41;4946854;28;20024;-75
2021/06/03 09:23:00;;;;;;;8.35;2.03;;;24.10;81.20;;;23.53;32.47;102196.50;4955605;28;20413;-75
2021/06/03 09:26:29;;;;;;;2.72;1.73;;;23.90;80.30;;;23.34;31.79;102194.41;4928646;28;20037;-75
2021/06/03 09:29:37;;;;;;;7.00;2.30;;;24.30;82.50;;;23.74;32.93;102196.66;4973091;28;20048;-76
2021/06/03 09:32:22;;;;;;;2.10;1.73;;;24.30;78.10;;;23.55;32.74;102199.09;4975607;28;20109;-75
2021/06/03 09:35:47;;;;;;;3.65;1.90;;;24.60;78.90;;;23.82;31.10;102193.38;4956580;28;20029;-75
2021/06/03 09:38:41;;;;;;;4.93;1.85;;;24.20;79.00;;;23.03;34.45;102195.06;4958666;28;20041;-75
2021/06/03 09:42:07;;;;;;;5.50;3.10;;;24.30;80.60;;;23.74;33.47;102193.97;4947588;28;20016;-76
2021/06/03 09:45:18;;;;;;;4.10;2.20;;;24.40;79.20;;;23.69;34.28;102184.53;4966847;28;20058;-75
2021/06/03 09:48:58;;;;;;;4.85;2.05;;;24.60;80.30;;;24.13;32.87;102186.38;4977317;28;20037;-76
2021/06/03 09:52:51;;;;;;;4.65;1.52;;;24.80;80.90;;;24.44;32.39;102175.78;4970843;28;20493;-75
2021/06/03 09:56:28;;;;;;;2.50;1.55;;;24.80;76.30;;;23.84;32.33;102174.44;4975279;28;20049;-76
2021/06/03 10:00:20;;;;;;;2.40;1.35;;;24.80;78.30;;;24.25;31.47;102175.59;4982434;28;20486;-75
2021/06/03 10:03:06;;;;;;;5.18;1.63;;;24.80;78.00;;;24.52;32.08;102175.19;4963526;28;22113;-75
2021/06/03 10:06:51;;;;;;;1.58;1.23;;;24.50;78.50;;;23.76;31.16;102175.06;4960136;28;20041;-75
2021/06/03 10:09:48;;;;;;;1.42;1.27;;;24.50;78.60;;;24.08;31.43;102185.91;4987155;28;20037;-76
2021/06/03 10:12:57;;;;;;;3.30;1.55;;;24.70;78.10;;;24.30;31.79;102178.78;4955130;28;20037;-75
2021/06/03 10:16:04;;;;;;;9.15;1.60;;;24.60;76.60;;;23.64;32.04;102162.56;4956189;28;20087;-75
2021/06/03 10:19:17;;;;;;;2.70;1.65;;;24.20;76.50;;;23.58;31.66;102165.72;4954483;28;20038;-75
2021/06/03 10:22:40;;;;;;;3.45;1.58;;;24.30;77.10;;;23.91;31.12;102168.44;4953467;28;20037;-75
2021/06/03 10:25:49;;;;;;;2.08;1.48;;;24.70;76.40;;;23.85;30.60;102177.00;4960501;28;20425;-75
2021/06/03 10:28:19;;;;;;;12.70;3.10;;;24.70;76.70;;;24.28;31.34;102170.81;4952859;28;20050;-75
2021/06/03 10:30:49;;;;;;;2.25;1.33;;;24.70;76.30;;;23.96;30.31;102173.44;5026984;28;20029;-75
2021/06/03 10:33:29;;;;;;;2.50;1.77;;;24.80;75.00;;;24.19;31.27;102182.34;5004696;28;20040;-75
2021/06/03 10:36:00;;;;;;;3.13;1.52;;;24.60;74.30;;;23.83;32.20;102178.97;5010399;28;20021;-76
2021/06/03 10:38:27;;;;;;;2.40;1.30;;;24.70;76.20;;;24.22;30.51;102174.03;5011575;28;20041;-75
2021/06/03 10:41:11;;;;;;;3.75;1.67;;;24.50;77.10;;;24.06;30.79;102179.81;5012221;28;20519;-75
2021/06/03 10:43:38;;;;;;;3.20;1.52;;;25.00;75.50;;;24.65;31.13;102177.72;4997030;28;22276;-75